sensor_id;sensor_type;location;lat;lon;timestamp;P1;durP1;ratioP1;P2;durP2;ratioP2
51971;SDS011;37991;49.662;10.060;2022-07-12T00:01:29;0.85;;;0.80;;
51971;SDS011;37991;49.662;10.060;2022-07-12T00:03:55;0.80;;;0.80;;
51971;SDS011;37991;49.662;10.060;2022-07-12T00:06:20;1.15;;;0.93;;
51971;SDS011;37991;49.662;10.060;2022-07-12T00:08:46;0.90;;;0.90;;
51971;SDS011;37991;49.662;10.060;2022-07-12T00:11:11;0.88;;;0.77;;
51971;SDS011;37991;49.662;10.060;2022-07-12T00:13:36;0.70;;;0.70;;
51971;SDS011;37991;49.662;10.060;2022-07-12T00:16:02;0.68;;;0.68;;
51971;SDS011;37991;49.662;10.060;2022-07-12T00:18:28;0.90;;;0.90;;
51971;SDS011;37991;49.662;10.060;2022-07-12T00:20:53;0.90;;;0.65;;
51971;SDS011;37991;49.662;10.060;2022-07-12T00:23:19;0.80;;;0.65;;
51971;SDS011;37991;49.662;10.060;2022-07-12T00:25:44;0.82;;;0.82;;
51971;SDS011;37991;49.662;10.060;2022-07-12T00:28:10;1.83;;;1.00;;
51971;SDS011;37991;49.662;10.060;2022-07-12T00:30:35;1.20;;;1.05;;
51971;SDS011;37991;49.662;10.060;2022-07-12T00:33:00;1.30;;;1.20;;
51971;SDS011;37991;49.662;10.060;2022-07-12T00:35:26;0.98;;;0.98;;
51971;SDS011;37991;49.662;10.060;2022-07-12T00:37:51;0.73;;;0.73;;
51971;SDS011;37991;49.662;10.060;2022-07-12T00:40:17;1.90;;;0.95;;
51971;SDS011;37991;49.662;10.060;2022-07-12T00:42:42;1.20;;;1.02;;
51971;SDS011;37991;49.662;10.060;2022-07-12T00:45:08;2.65;;;1.00;;
51971;SDS011;37991;49.662;10.060;2022-07-12T00:47:38;1.13;;;0.90;;
51971;SDS011;37991;49.662;10.060;2022-07-12T00:50:07;1.27;;;0.80;;
51971;SDS011;37991;49.662;10.060;2022-07-12T00:52:34;1.27;;;0.90;;
51971;SDS011;37991;49.662;10.060;2022-07-12T00:55:01;0.80;;;0.80;;
51971;SDS011;37991;49.662;10.060;2022-07-12T00:57:26;1.00;;;0.82;;
51971;SDS011;37991;49.662;10.060;2022-07-12T00:59:52;1.23;;;0.98;;
51971;SDS011;37991;49.662;10.060;2022-07-12T01:02:17;1.00;;;0.90;;
51971;SDS011;37991;49.662;10.060;2022-07-12T01:04:43;1.08;;;0.90;;
51971;SDS011;37991;49.662;10.060;2022-07-12T01:07:10;1.15;;;1.05;;
51971;SDS011;37991;49.662;10.060;2022-07-12T01:09:36;1.65;;;1.20;;
51971;SDS011;37991;49.662;10.060;2022-07-12T01:12:02;1.23;;;1.13;;
51971;SDS011;37991;49.662;10.060;2022-07-12T01:14:28;1.40;;;1.20;;
51971;SDS011;37991;49.662;10.060;2022-07-12T01:16:54;0.70;;;0.70;;
51971;SDS011;37991;49.662;10.060;2022-07-12T01:19:20;1.25;;;1.15;;
51971;SDS011;37991;49.662;10.060;2022-07-12T01:21:46;0.95;;;0.90;;
51971;SDS011;37991;49.662;10.060;2022-07-12T01:24:14;0.77;;;0.77;;
51971;SDS011;37991;49.662;10.060;2022-07-12T01:26:40;1.23;;;1.20;;
51971;SDS011;37991;49.662;10.060;2022-07-12T01:29:06;1.33;;;1.23;;
51971;SDS011;37991;49.662;10.060;2022-07-12T01:31:33;1.23;;;1.20;;
51971;SDS011;37991;49.662;10.060;2022-07-12T01:33:59;1.10;;;1.00;;
51971;SDS011;37991;49.662;10.060;2022-07-12T01:36:25;2.85;;;1.38;;
51971;SDS011;37991;49.662;10.060;2022-07-12T01:38:50;1.13;;;1.00;;
51971;SDS011;37991;49.662;10.060;2022-07-12T01:41:16;1.13;;;1.02;;
51971;SDS011;37991;49.662;10.060;2022-07-12T01:43:41;2.28;;;1.35;;
51971;SDS011;37991;49.662;10.060;2022-07-12T01:46:07;1.35;;;1.10;;
51971;SDS011;37991;49.662;10.060;2022-07-12T01:48:32;1.55;;;1.30;;
51971;SDS011;37991;49.662;10.060;2022-07-12T01:50:58;1.17;;;1.05;;
51971;SDS011;37991;49.662;10.060;2022-07-12T01:53:23;1.55;;;1.40;;
51971;SDS011;37991;49.662;10.060;2022-07-12T01:55:48;1.38;;;1.20;;
51971;SDS011;37991;49.662;10.060;2022-07-12T01:58:14;1.27;;;1.17;;
51971;SDS011;37991;49.662;10.060;2022-07-12T02:00:40;2.00;;;1.10;;
51971;SDS011;37991;49.662;10.060;2022-07-12T02:03:06;1.65;;;1.10;;
51971;SDS011;37991;49.662;10.060;2022-07-12T02:05:31;1.67;;;1.25;;
51971;SDS011;37991;49.662;10.060;2022-07-12T02:07:57;1.30;;;1.20;;
51971;SDS011;37991;49.662;10.060;2022-07-12T02:10:22;1.85;;;1.27;;
51971;SDS011;37991;49.662;10.060;2022-07-12T02:12:47;1.70;;;1.30;;
51971;SDS011;37991;49.662;10.060;2022-07-12T02:15:13;1.52;;;1.33;;
51971;SDS011;37991;49.662;10.060;2022-07-12T02:17:38;1.73;;;1.60;;
51971;SDS011;37991;49.662;10.060;2022-07-12T02:20:04;1.25;;;1.15;;
51971;SDS011;37991;49.662;10.060;2022-07-12T02:22:30;2.45;;;1.33;;
51971;SDS011;37991;49.662;10.060;2022-07-12T02:24:55;1.73;;;1.13;;
51971;SDS011;37991;49.662;10.060;2022-07-12T02:27:21;2.30;;;1.10;;
51971;SDS011;37991;49.662;10.060;2022-07-12T02:29:46;1.23;;;1.13;;
51971;SDS011;37991;49.662;10.060;2022-07-12T02:32:11;1.60;;;1.40;;
51971;SDS011;37991;49.662;10.060;2022-07-12T02:34:37;1.95;;;1.30;;
51971;SDS011;37991;49.662;10.060;2022-07-12T02:37:02;1.25;;;1.10;;
51971;SDS011;37991;49.662;10.060;2022-07-12T02:39:28;1.40;;;1.00;;
51971;SDS011;37991;49.662;10.060;2022-07-12T02:41:54;1.73;;;1.17;;
51971;SDS011;37991;49.662;10.060;2022-07-12T02:44:19;1.42;;;1.13;;
51971;SDS011;37991;49.662;10.060;2022-07-12T02:46:45;3.22;;;1.40;;
51971;SDS011;37991;49.662;10.060;2022-07-12T02:49:10;1.27;;;1.17;;
51971;SDS011;37991;49.662;10.060;2022-07-12T02:51:35;1.48;;;1.38;;
51971;SDS011;37991;49.662;10.060;2022-07-12T02:54:01;1.40;;;1.30;;
51971;SDS011;37991;49.662;10.060;2022-07-12T02:56:26;3.50;;;1.35;;
51971;SDS011;37991;49.662;10.060;2022-07-12T02:58:52;1.38;;;1.17;;
51971;SDS011;37991;49.662;10.060;2022-07-12T03:01:17;2.95;;;1.48;;
51971;SDS011;37991;49.662;10.060;2022-07-12T03:03:42;1.63;;;1.33;;
51971;SDS011;37991;49.662;10.060;2022-07-12T03:06:08;1.33;;;1.15;;
51971;SDS011;37991;49.662;10.060;2022-07-12T03:08:33;2.92;;;1.50;;
51971;SDS011;37991;49.662;10.060;2022-07-12T03:10:59;1.80;;;1.05;;
51971;SDS011;37991;49.662;10.060;2022-07-12T03:13:24;1.83;;;1.58;;
51971;SDS011;37991;49.662;10.060;2022-07-12T03:15:50;1.58;;;1.48;;
51971;SDS011;37991;49.662;10.060;2022-07-12T03:18:16;2.40;;;1.42;;
51971;SDS011;37991;49.662;10.060;2022-07-12T03:20:42;1.40;;;1.30;;
51971;SDS011;37991;49.662;10.060;2022-07-12T03:23:07;1.23;;;1.05;;
51971;SDS011;37991;49.662;10.060;2022-07-12T03:25:33;2.15;;;1.38;;
51971;SDS011;37991;49.662;10.060;2022-07-12T03:27:59;1.42;;;1.13;;
51971;SDS011;37991;49.662;10.060;2022-07-12T03:30:24;2.35;;;1.27;;
51971;SDS011;37991;49.662;10.060;2022-07-12T03:32:50;1.70;;;1.10;;
51971;SDS011;37991;49.662;10.060;2022-07-12T03:35:15;1.13;;;1.02;;
51971;SDS011;37991;49.662;10.060;2022-07-12T03:37:45;1.77;;;1.20;;
51971;SDS011;37991;49.662;10.060;2022-07-12T03:40:11;2.35;;;1.10;;
51971;SDS011;37991;49.662;10.060;2022-07-12T03:42:38;1.45;;;1.20;;
51971;SDS011;37991;49.662;10.060;2022-07-12T03:45:05;1.10;;;1.00;;
51971;SDS011;37991;49.662;10.060;2022-07-12T03:47:31;2.33;;;1.38;;
51971;SDS011;37991;49.662;10.060;2022-07-12T03:49:57;1.38;;;0.98;;
51971;SDS011;37991;49.662;10.060;2022-07-12T03:52:23;2.55;;;1.23;;
51971;SDS011;37991;49.662;10.060;2022-07-12T03:54:48;1.73;;;1.23;;
51971;SDS011;37991;49.662;10.060;2022-07-12T03:57:14;2.10;;;1.58;;
51971;SDS011;37991;49.662;10.060;2022-07-12T03:59:40;1.40;;;1.30;;
51971;SDS011;37991;49.662;10.060;2022-07-12T04:02:05;1.20;;;1.10;;
51971;SDS011;37991;49.662;10.060;2022-07-12T04:04:31;1.40;;;1.30;;
51971;SDS011;37991;49.662;10.060;2022-07-12T04:06:56;1.23;;;1.13;;
51971;SDS011;37991;49.662;10.060;2022-07-12T04:09:22;1.73;;;1.17;;
51971;SDS011;37991;49.662;10.060;2022-07-12T04:11:47;2.20;;;0.95;;
51971;SDS011;37991;49.662;10.060;2022-07-12T04:14:12;2.90;;;1.38;;
51971;SDS011;37991;49.662;10.060;2022-07-12T04:16:38;1.33;;;1.08;;
51971;SDS011;37991;49.662;10.060;2022-07-12T04:19:03;1.75;;;1.20;;
51971;SDS011;37991;49.662;10.060;2022-07-12T04:21:30;2.13;;;1.30;;
51971;SDS011;37991;49.662;10.060;2022-07-12T04:23:56;3.03;;;1.40;;
51971;SDS011;37991;49.662;10.060;2022-07-12T04:26:21;1.77;;;1.23;;
51971;SDS011;37991;49.662;10.060;2022-07-12T04:28:47;1.75;;;1.52;;
51971;SDS011;37991;49.662;10.060;2022-07-12T04:31:12;1.70;;;1.20;;
51971;SDS011;37991;49.662;10.060;2022-07-12T04:33:37;1.45;;;1.33;;
51971;SDS011;37991;49.662;10.060;2022-07-12T04:36:03;1.35;;;1.25;;
51971;SDS011;37991;49.662;10.060;2022-07-12T04:38:29;1.30;;;1.20;;
51971;SDS011;37991;49.662;10.060;2022-07-12T04:40:54;1.25;;;1.15;;
51971;SDS011;37991;49.662;10.060;2022-07-12T04:43:19;1.90;;;1.35;;
51971;SDS011;37991;49.662;10.060;2022-07-12T04:45:45;1.60;;;1.30;;
51971;SDS011;37991;49.662;10.060;2022-07-12T04:48:11;1.83;;;1.45;;
51971;SDS011;37991;49.662;10.060;2022-07-12T04:50:36;1.98;;;1.40;;
51971;SDS011;37991;49.662;10.060;2022-07-12T04:53:02;1.40;;;1.30;;
51971;SDS011;37991;49.662;10.060;2022-07-12T04:55:28;2.22;;;1.30;;
51971;SDS011;37991;49.662;10.060;2022-07-12T04:57:53;2.22;;;1.42;;
51971;SDS011;37991;49.662;10.060;2022-07-12T05:00:19;1.88;;;1.65;;
51971;SDS011;37991;49.662;10.060;2022-07-12T05:02:45;4.97;;;1.90;;
51971;SDS011;37991;49.662;10.060;2022-07-12T05:05:10;1.73;;;1.50;;
51971;SDS011;37991;49.662;10.060;2022-07-12T05:07:36;3.65;;;1.77;;
51971;SDS011;37991;49.662;10.060;2022-07-12T05:10:01;1.42;;;1.33;;
51971;SDS011;37991;49.662;10.060;2022-07-12T05:12:26;2.10;;;1.58;;
51971;SDS011;37991;49.662;10.060;2022-07-12T05:14:52;2.50;;;1.90;;
51971;SDS011;37991;49.662;10.060;2022-07-12T05:17:17;3.17;;;2.10;;
51971;SDS011;37991;49.662;10.060;2022-07-12T05:19:42;3.45;;;2.20;;
51971;SDS011;37991;49.662;10.060;2022-07-12T05:22:09;3.70;;;2.00;;
51971;SDS011;37991;49.662;10.060;2022-07-12T05:24:34;3.28;;;2.28;;
51971;SDS011;37991;49.662;10.060;2022-07-12T05:26:59;3.67;;;2.00;;
51971;SDS011;37991;49.662;10.060;2022-07-12T05:29:25;4.93;;;2.70;;
51971;SDS011;37991;49.662;10.060;2022-07-12T05:31:50;4.95;;;2.30;;
51971;SDS011;37991;49.662;10.060;2022-07-12T05:34:20;2.40;;;1.90;;
51971;SDS011;37991;49.662;10.060;2022-07-12T05:36:45;5.68;;;2.55;;
51971;SDS011;37991;49.662;10.060;2022-07-12T05:39:10;4.40;;;2.10;;
51971;SDS011;37991;49.662;10.060;2022-07-12T05:41:36;3.63;;;2.10;;
51971;SDS011;37991;49.662;10.060;2022-07-12T05:44:01;3.95;;;1.98;;
51971;SDS011;37991;49.662;10.060;2022-07-12T05:46:26;3.03;;;2.28;;
51971;SDS011;37991;49.662;10.060;2022-07-12T05:48:53;3.60;;;2.15;;
51971;SDS011;37991;49.662;10.060;2022-07-12T05:51:18;3.15;;;2.05;;
51971;SDS011;37991;49.662;10.060;2022-07-12T05:54:02;4.25;;;2.50;;
51971;SDS011;37991;49.662;10.060;2022-07-12T05:56:29;5.03;;;2.10;;
51971;SDS011;37991;49.662;10.060;2022-07-12T05:58:54;5.22;;;2.55;;
51971;SDS011;37991;49.662;10.060;2022-07-12T06:01:20;2.72;;;2.22;;
51971;SDS011;37991;49.662;10.060;2022-07-12T06:03:45;5.32;;;2.08;;
51971;SDS011;37991;49.662;10.060;2022-07-12T06:06:10;6.85;;;2.20;;
51971;SDS011;37991;49.662;10.060;2022-07-12T06:08:36;5.20;;;2.00;;
51971;SDS011;37991;49.662;10.060;2022-07-12T06:11:01;6.13;;;1.90;;
51971;SDS011;37991;49.662;10.060;2022-07-12T06:13:26;5.88;;;2.22;;
51971;SDS011;37991;49.662;10.060;2022-07-12T06:15:52;3.88;;;2.35;;
51971;SDS011;37991;49.662;10.060;2022-07-12T06:18:18;4.90;;;2.17;;
51971;SDS011;37991;49.662;10.060;2022-07-12T06:20:43;3.50;;;2.17;;
51971;SDS011;37991;49.662;10.060;2022-07-12T06:23:09;2.10;;;1.90;;
51971;SDS011;37991;49.662;10.060;2022-07-12T06:25:34;3.15;;;1.83;;
51971;SDS011;37991;49.662;10.060;2022-07-12T06:28:00;6.53;;;1.90;;
51971;SDS011;37991;49.662;10.060;2022-07-12T06:30:26;2.95;;;1.83;;
51971;SDS011;37991;49.662;10.060;2022-07-12T06:32:51;9.85;;;1.75;;
51971;SDS011;37991;49.662;10.060;2022-07-12T06:35:17;2.00;;;1.60;;
51971;SDS011;37991;49.662;10.060;2022-07-12T06:37:42;1.90;;;1.30;;
51971;SDS011;37991;49.662;10.060;2022-07-12T06:40:08;4.47;;;1.63;;
51971;SDS011;37991;49.662;10.060;2022-07-12T06:42:34;1.88;;;1.27;;
51971;SDS011;37991;49.662;10.060;2022-07-12T06:45:00;5.03;;;1.42;;
51971;SDS011;37991;49.662;10.060;2022-07-12T06:47:26;5.88;;;1.40;;
51971;SDS011;37991;49.662;10.060;2022-07-12T06:49:51;1.52;;;1.20;;
51971;SDS011;37991;49.662;10.060;2022-07-12T06:52:17;23.70;;;3.33;;
51971;SDS011;37991;49.662;10.060;2022-07-12T06:54:42;30.92;;;3.78;;
51971;SDS011;37991;49.662;10.060;2022-07-12T06:57:08;4.57;;;1.60;;
51971;SDS011;37991;49.662;10.060;2022-07-12T06:59:33;4.55;;;1.20;;
51971;SDS011;37991;49.662;10.060;2022-07-12T07:01:58;3.97;;;1.00;;
51971;SDS011;37991;49.662;10.060;2022-07-12T07:04:24;1.00;;;0.90;;
51971;SDS011;37991;49.662;10.060;2022-07-12T07:06:49;1.13;;;1.02;;
51971;SDS011;37991;49.662;10.060;2022-07-12T07:09:15;0.77;;;0.70;;
51971;SDS011;37991;49.662;10.060;2022-07-12T07:11:40;1.23;;;0.90;;
51971;SDS011;37991;49.662;10.060;2022-07-12T07:14:06;1.27;;;1.00;;
51971;SDS011;37991;49.662;10.060;2022-07-12T07:16:31;2.38;;;1.00;;
51971;SDS011;37991;49.662;10.060;2022-07-12T07:18:57;2.20;;;1.33;;
51971;SDS011;37991;49.662;10.060;2022-07-12T07:21:22;0.80;;;0.80;;
51971;SDS011;37991;49.662;10.060;2022-07-12T07:23:48;1.27;;;0.73;;
51971;SDS011;37991;49.662;10.060;2022-07-12T07:26:13;1.08;;;1.00;;
51971;SDS011;37991;49.662;10.060;2022-07-12T07:28:38;2.30;;;1.00;;
51971;SDS011;37991;49.662;10.060;2022-07-12T07:31:22;1.05;;;0.95;;
51971;SDS011;37991;49.662;10.060;2022-07-12T07:33:48;2.30;;;0.88;;
51971;SDS011;37991;49.662;10.060;2022-07-12T07:36:13;1.25;;;1.10;;
51971;SDS011;37991;49.662;10.060;2022-07-12T07:38:39;2.33;;;0.75;;
51971;SDS011;37991;49.662;10.060;2022-07-12T07:41:04;1.98;;;1.02;;
51971;SDS011;37991;49.662;10.060;2022-07-12T07:43:30;3.20;;;1.20;;
51971;SDS011;37991;49.662;10.060;2022-07-12T07:45:55;1.25;;;0.90;;
51971;SDS011;37991;49.662;10.060;2022-07-12T07:48:21;1.40;;;0.82;;
51971;SDS011;37991;49.662;10.060;2022-07-12T07:50:47;1.05;;;0.85;;
51971;SDS011;37991;49.662;10.060;2022-07-12T07:53:12;1.85;;;1.00;;
51971;SDS011;37991;49.662;10.060;2022-07-12T07:55:38;2.35;;;1.00;;
51971;SDS011;37991;49.662;10.060;2022-07-12T07:58:03;1.00;;;0.85;;
51971;SDS011;37991;49.662;10.060;2022-07-12T08:00:28;0.80;;;0.80;;
51971;SDS011;37991;49.662;10.060;2022-07-12T08:02:57;0.73;;;0.68;;
51971;SDS011;37991;49.662;10.060;2022-07-12T08:05:23;2.25;;;0.88;;
51971;SDS011;37991;49.662;10.060;2022-07-12T08:07:49;4.47;;;1.10;;
51971;SDS011;37991;49.662;10.060;2022-07-12T08:10:14;0.68;;;0.68;;
51971;SDS011;37991;49.662;10.060;2022-07-12T08:12:39;0.50;;;0.50;;
51971;SDS011;37991;49.662;10.060;2022-07-12T08:15:05;1.58;;;0.80;;
51971;SDS011;37991;49.662;10.060;2022-07-12T08:17:31;1.85;;;0.93;;
51971;SDS011;37991;49.662;10.060;2022-07-12T08:19:57;3.08;;;0.93;;
51971;SDS011;37991;49.662;10.060;2022-07-12T08:22:23;3.45;;;0.73;;
51971;SDS011;37991;49.662;10.060;2022-07-12T08:24:48;0.80;;;0.80;;
51971;SDS011;37991;49.662;10.060;2022-07-12T08:27:15;1.15;;;0.85;;
51971;SDS011;37991;49.662;10.060;2022-07-12T08:29:40;0.80;;;0.70;;
51971;SDS011;37991;49.662;10.060;2022-07-12T08:32:06;1.77;;;0.77;;
51971;SDS011;37991;49.662;10.060;2022-07-12T08:34:32;2.05;;;0.80;;
51971;SDS011;37991;49.662;10.060;2022-07-12T08:36:58;1.02;;;0.93;;
51971;SDS011;37991;49.662;10.060;2022-07-12T08:39:24;0.70;;;0.70;;
51971;SDS011;37991;49.662;10.060;2022-07-12T08:41:49;2.08;;;0.70;;
51971;SDS011;37991;49.662;10.060;2022-07-12T08:44:14;0.85;;;0.85;;
51971;SDS011;37991;49.662;10.060;2022-07-12T08:46:40;3.35;;;0.85;;
51971;SDS011;37991;49.662;10.060;2022-07-12T08:49:06;11.75;;;1.50;;
51971;SDS011;37991;49.662;10.060;2022-07-12T08:51:34;0.60;;;0.60;;
51971;SDS011;37991;49.662;10.060;2022-07-12T08:54:09;0.95;;;0.70;;
51971;SDS011;37991;49.662;10.060;2022-07-12T08:56:37;0.80;;;0.80;;
51971;SDS011;37991;49.662;10.060;2022-07-12T08:59:14;0.73;;;0.70;;
51971;SDS011;37991;49.662;10.060;2022-07-12T09:01:41;0.70;;;0.70;;
51971;SDS011;37991;49.662;10.060;2022-07-12T09:04:09;0.73;;;0.70;;
51971;SDS011;37991;49.662;10.060;2022-07-12T09:06:35;2.03;;;1.08;;
51971;SDS011;37991;49.662;10.060;2022-07-12T09:09:00;0.95;;;0.70;;
51971;SDS011;37991;49.662;10.060;2022-07-12T09:11:25;0.90;;;0.85;;
51971;SDS011;37991;49.662;10.060;2022-07-12T09:13:52;0.80;;;0.80;;
51971;SDS011;37991;49.662;10.060;2022-07-12T09:16:19;1.33;;;0.80;;
51971;SDS011;37991;49.662;10.060;2022-07-12T09:18:47;0.80;;;0.70;;
51971;SDS011;37991;49.662;10.060;2022-07-12T09:21:22;0.75;;;0.75;;
51971;SDS011;37991;49.662;10.060;2022-07-12T09:23:57;0.80;;;0.80;;
51971;SDS011;37991;49.662;10.060;2022-07-12T09:26:30;3.78;;;0.82;;
51971;SDS011;37991;49.662;10.060;2022-07-12T09:29:06;0.80;;;0.80;;
51971;SDS011;37991;49.662;10.060;2022-07-12T09:31:42;0.70;;;0.60;;
51971;SDS011;37991;49.662;10.060;2022-07-12T09:34:33;1.77;;;0.93;;
51971;SDS011;37991;49.662;10.060;2022-07-12T09:39:43;1.40;;;0.73;;
51971;SDS011;37991;49.662;10.060;2022-07-12T09:42:09;1.30;;;0.80;;
51971;SDS011;37991;49.662;10.060;2022-07-12T09:44:36;0.75;;;0.65;;
51971;SDS011;37991;49.662;10.060;2022-07-12T09:47:02;1.40;;;0.65;;
51971;SDS011;37991;49.662;10.060;2022-07-12T09:49:28;1.33;;;0.70;;
51971;SDS011;37991;49.662;10.060;2022-07-12T09:51:55;0.68;;;0.68;;
51971;SDS011;37991;49.662;10.060;2022-07-12T09:54:25;1.10;;;0.80;;
51971;SDS011;37991;49.662;10.060;2022-07-12T09:56:57;0.90;;;0.88;;
51971;SDS011;37991;49.662;10.060;2022-07-12T09:59:24;1.08;;;0.68;;
51971;SDS011;37991;49.662;10.060;2022-07-12T10:01:53;0.70;;;0.70;;
51971;SDS011;37991;49.662;10.060;2022-07-12T10:04:21;0.82;;;0.80;;
51971;SDS011;37991;49.662;10.060;2022-07-12T10:06:47;0.88;;;0.80;;
51971;SDS011;37991;49.662;10.060;2022-07-12T10:09:14;1.05;;;0.82;;
51971;SDS011;37991;49.662;10.060;2022-07-12T10:11:40;0.90;;;0.90;;
51971;SDS011;37991;49.662;10.060;2022-07-12T10:14:09;1.15;;;0.80;;
51971;SDS011;37991;49.662;10.060;2022-07-12T10:16:36;0.70;;;0.70;;
51971;SDS011;37991;49.662;10.060;2022-07-12T10:21:52;0.90;;;0.90;;
51971;SDS011;37991;49.662;10.060;2022-07-12T10:26:56;0.82;;;0.70;;
51971;SDS011;37991;49.662;10.060;2022-07-12T10:29:22;2.25;;;0.70;;
51971;SDS011;37991;49.662;10.060;2022-07-12T10:31:48;1.25;;;1.10;;
51971;SDS011;37991;49.662;10.060;2022-07-12T10:39:24;2.58;;;1.33;;
51971;SDS011;37991;49.662;10.060;2022-07-12T10:44:34;0.80;;;0.80;;
51971;SDS011;37991;49.662;10.060;2022-07-12T10:47:01;0.70;;;0.70;;
51971;SDS011;37991;49.662;10.060;2022-07-12T10:49:29;0.75;;;0.75;;
51971;SDS011;37991;49.662;10.060;2022-07-12T10:54:37;0.50;;;0.50;;
51971;SDS011;37991;49.662;10.060;2022-07-12T10:57:03;0.80;;;0.80;;
51971;SDS011;37991;49.662;10.060;2022-07-12T10:59:29;1.40;;;0.70;;
51971;SDS011;37991;49.662;10.060;2022-07-12T11:01:55;4.45;;;1.00;;
51971;SDS011;37991;49.662;10.060;2022-07-12T11:04:21;0.90;;;0.90;;
51971;SDS011;37991;49.662;10.060;2022-07-12T11:06:46;0.75;;;0.75;;
51971;SDS011;37991;49.662;10.060;2022-07-12T11:09:12;0.70;;;0.70;;
51971;SDS011;37991;49.662;10.060;2022-07-12T11:11:44;2.35;;;0.85;;
51971;SDS011;37991;49.662;10.060;2022-07-12T11:14:20;0.70;;;0.70;;
51971;SDS011;37991;49.662;10.060;2022-07-12T11:16:47;2.70;;;0.98;;
51971;SDS011;37991;49.662;10.060;2022-07-12T11:19:13;1.40;;;0.77;;
51971;SDS011;37991;49.662;10.060;2022-07-12T11:21:43;0.80;;;0.77;;
51971;SDS011;37991;49.662;10.060;2022-07-12T11:24:16;0.60;;;0.60;;
51971;SDS011;37991;49.662;10.060;2022-07-12T11:26:42;0.77;;;0.77;;
51971;SDS011;37991;49.662;10.060;2022-07-12T11:29:08;0.88;;;0.70;;
51971;SDS011;37991;49.662;10.060;2022-07-12T11:31:33;0.60;;;0.60;;
51971;SDS011;37991;49.662;10.060;2022-07-12T11:33:59;0.77;;;0.77;;
51971;SDS011;37991;49.662;10.060;2022-07-12T11:36:25;0.60;;;0.60;;
51971;SDS011;37991;49.662;10.060;2022-07-12T11:38:51;0.60;;;0.60;;
51971;SDS011;37991;49.662;10.060;2022-07-12T11:41:17;0.70;;;0.70;;
51971;SDS011;37991;49.662;10.060;2022-07-12T11:43:42;1.80;;;0.80;;
51971;SDS011;37991;49.662;10.060;2022-07-12T11:46:08;0.52;;;0.52;;
51971;SDS011;37991;49.662;10.060;2022-07-12T11:48:35;1.40;;;0.73;;
51971;SDS011;37991;49.662;10.060;2022-07-12T11:51:04;0.60;;;0.50;;
51971;SDS011;37991;49.662;10.060;2022-07-12T11:53:32;1.20;;;0.65;;
51971;SDS011;37991;49.662;10.060;2022-07-12T11:55:59;1.10;;;0.60;;
51971;SDS011;37991;49.662;10.060;2022-07-12T11:58:26;0.55;;;0.55;;
51971;SDS011;37991;49.662;10.060;2022-07-12T12:00:53;0.98;;;0.80;;
51971;SDS011;37991;49.662;10.060;2022-07-12T12:03:20;3.08;;;1.60;;
51971;SDS011;37991;49.662;10.060;2022-07-12T12:05:50;0.73;;;0.73;;
51971;SDS011;37991;49.662;10.060;2022-07-12T12:08:18;2.08;;;1.05;;
51971;SDS011;37991;49.662;10.060;2022-07-12T12:10:52;0.70;;;0.70;;
51971;SDS011;37991;49.662;10.060;2022-07-12T12:13:19;0.75;;;0.70;;
51971;SDS011;37991;49.662;10.060;2022-07-12T12:15:49;1.13;;;0.80;;
51971;SDS011;37991;49.662;10.060;2022-07-12T12:18:42;1.40;;;0.85;;
51971;SDS011;37991;49.662;10.060;2022-07-12T12:21:12;0.95;;;0.85;;
51971;SDS011;37991;49.662;10.060;2022-07-12T12:23:41;0.63;;;0.57;;
51971;SDS011;37991;49.662;10.060;2022-07-12T12:26:20;0.85;;;0.70;;
51971;SDS011;37991;49.662;10.060;2022-07-12T12:28:47;0.70;;;0.70;;
51971;SDS011;37991;49.662;10.060;2022-07-12T12:31:14;0.63;;;0.52;;
51971;SDS011;37991;49.662;10.060;2022-07-12T12:33:47;0.90;;;0.90;;
51971;SDS011;37991;49.662;10.060;2022-07-12T12:36:21;0.75;;;0.75;;
51971;SDS011;37991;49.662;10.060;2022-07-12T12:38:47;1.27;;;0.85;;
51971;SDS011;37991;49.662;10.060;2022-07-12T12:41:15;0.85;;;0.80;;
51971;SDS011;37991;49.662;10.060;2022-07-12T12:43:42;0.80;;;0.75;;
51971;SDS011;37991;49.662;10.060;2022-07-12T12:46:08;0.70;;;0.70;;
51971;SDS011;37991;49.662;10.060;2022-07-12T12:48:34;0.95;;;0.90;;
51971;SDS011;37991;49.662;10.060;2022-07-12T12:51:10;1.52;;;0.80;;
51971;SDS011;37991;49.662;10.060;2022-07-12T12:53:36;0.70;;;0.70;;
51971;SDS011;37991;49.662;10.060;2022-07-12T12:56:08;0.82;;;0.70;;
51971;SDS011;37991;49.662;10.060;2022-07-12T12:58:37;0.80;;;0.80;;
51971;SDS011;37991;49.662;10.060;2022-07-12T13:01:04;1.23;;;0.70;;
51971;SDS011;37991;49.662;10.060;2022-07-12T13:03:30;1.88;;;0.82;;
51971;SDS011;37991;49.662;10.060;2022-07-12T13:05:56;0.60;;;0.60;;
51971;SDS011;37991;49.662;10.060;2022-07-12T13:08:22;0.70;;;0.70;;
51971;SDS011;37991;49.662;10.060;2022-07-12T13:10:48;1.77;;;0.80;;
51971;SDS011;37991;49.662;10.060;2022-07-12T13:13:34;1.33;;;0.88;;
51971;SDS011;37991;49.662;10.060;2022-07-12T13:16:01;0.80;;;0.80;;
51971;SDS011;37991;49.662;10.060;2022-07-12T13:18:27;1.20;;;0.85;;
51971;SDS011;37991;49.662;10.060;2022-07-12T13:20:52;0.68;;;0.68;;
51971;SDS011;37991;49.662;10.060;2022-07-12T13:23:17;0.70;;;0.70;;
51971;SDS011;37991;49.662;10.060;2022-07-12T13:25:43;2.00;;;0.90;;
51971;SDS011;37991;49.662;10.060;2022-07-12T13:28:08;2.15;;;0.80;;
51971;SDS011;37991;49.662;10.060;2022-07-12T13:30:35;0.93;;;0.68;;
51971;SDS011;37991;49.662;10.060;2022-07-12T13:33:01;2.60;;;1.02;;
51971;SDS011;37991;49.662;10.060;2022-07-12T13:35:26;1.95;;;0.80;;
51971;SDS011;37991;49.662;10.060;2022-07-12T13:37:54;1.23;;;0.82;;
51971;SDS011;37991;49.662;10.060;2022-07-12T13:40:20;0.90;;;0.90;;
51971;SDS011;37991;49.662;10.060;2022-07-12T13:42:48;0.88;;;0.85;;
51971;SDS011;37991;49.662;10.060;2022-07-12T13:45:22;0.77;;;0.77;;
51971;SDS011;37991;49.662;10.060;2022-07-12T13:47:49;2.40;;;0.98;;
51971;SDS011;37991;49.662;10.060;2022-07-12T13:50:19;2.05;;;1.00;;
51971;SDS011;37991;49.662;10.060;2022-07-12T13:52:45;0.95;;;0.95;;
51971;SDS011;37991;49.662;10.060;2022-07-12T13:55:12;0.90;;;0.90;;
51971;SDS011;37991;49.662;10.060;2022-07-12T13:57:40;1.33;;;1.08;;
51971;SDS011;37991;49.662;10.060;2022-07-12T14:00:07;2.03;;;1.00;;
51971;SDS011;37991;49.662;10.060;2022-07-12T14:02:39;0.80;;;0.80;;
51971;SDS011;37991;49.662;10.060;2022-07-12T14:05:07;1.13;;;0.60;;
51971;SDS011;37991;49.662;10.060;2022-07-12T14:07:33;2.47;;;0.90;;
51971;SDS011;37991;49.662;10.060;2022-07-12T14:09:59;0.85;;;0.82;;
51971;SDS011;37991;49.662;10.060;2022-07-12T14:12:25;1.85;;;0.73;;
51971;SDS011;37991;49.662;10.060;2022-07-12T14:14:51;1.02;;;0.95;;
51971;SDS011;37991;49.662;10.060;2022-07-12T14:17:35;0.90;;;0.90;;
51971;SDS011;37991;49.662;10.060;2022-07-12T14:20:01;0.90;;;0.80;;
51971;SDS011;37991;49.662;10.060;2022-07-12T14:22:27;0.73;;;0.73;;
51971;SDS011;37991;49.662;10.060;2022-07-12T14:24:54;0.70;;;0.70;;
51971;SDS011;37991;49.662;10.060;2022-07-12T14:27:20;2.90;;;0.80;;
51971;SDS011;37991;49.662;10.060;2022-07-12T14:29:45;1.55;;;1.02;;
51971;SDS011;37991;49.662;10.060;2022-07-12T14:32:10;0.75;;;0.75;;
51971;SDS011;37991;49.662;10.060;2022-07-12T14:34:36;2.38;;;0.70;;
51971;SDS011;37991;49.662;10.060;2022-07-12T14:37:01;2.50;;;0.85;;
51971;SDS011;37991;49.662;10.060;2022-07-12T14:39:27;0.73;;;0.70;;
51971;SDS011;37991;49.662;10.060;2022-07-12T14:41:53;4.50;;;0.90;;
51971;SDS011;37991;49.662;10.060;2022-07-12T14:44:19;2.00;;;0.82;;
51971;SDS011;37991;49.662;10.060;2022-07-12T14:46:44;1.20;;;1.00;;
51971;SDS011;37991;49.662;10.060;2022-07-12T14:49:10;1.35;;;0.55;;